Time;durP1;ratioP1;P1;durP2;ratioP2;P2;SDS_P1;SDS_P2;PMS_P1;PMS_P2;Temp;Humidity;BMP_temperature;BMP_pressure;BME280_temperature;BME280_humidity;BME280_pressure;Samples;Min_cycle;Max_cycle;Signal;HPM_P1;HPM_P2
2022/04/26 03:38:11;;;;;;;;;;;7.20;99.90;;;;;;5076660;28;19931;-71
2022/04/26 03:40:37;;;;;;;;;;;6.30;99.90;;;;;;5076623;28;19924;-71
2022/04/26 03:43:03;;;;;;;;;;;6.80;99.90;;;;;;5075912;28;19931;-71
2022/04/26 03:45:28;;;;;;;;;;;6.30;99.90;;;;;;5076800;28;19924;-68
2022/04/26 03:47:54;;;;;;;;;;;6.30;99.90;;;;;;5076719;28;19947;-71
2022/04/26 03:50:21;;;;;;;;;;;6.90;99.90;;;;;;5076667;28;19924;-70
2022/04/26 03:52:47;;;;;;;;;;;4.80;99.90;;;;;;5076347;28;19978;-69
2022/04/26 03:55:12;;;;;;;;;;;7.20;99.90;;;;;;5076542;28;19925;-70
2022/04/26 03:57:38;;;;;;;;;;;6.50;99.90;;;;;;5076250;28;19928;-68
2022/04/26 04:00:04;;;;;;;;;;;6.40;99.90;;;;;;5076364;28;19928;-70
2022/04/26 04:02:30;;;;;;;;;;;6.40;99.90;;;;;;5076407;28;19924;-70
2022/04/26 04:04:55;;;;;;;;;;;6.40;99.90;;;;;;5076419;28;19924;-70
2022/04/26 04:07:21;;;;;;;;;;;6.40;99.90;;;;;;5075374;28;19924;-71
2022/04/26 04:09:46;;;;;;;;;;;6.40;99.90;;;;;;5075213;28;19929;-70
2022/04/26 04:12:12;;;;;;;;;;;6.40;99.90;;;;;;5076178;28;19925;-71
2022/04/26 04:14:37;;;;;;;;;;;6.40;99.90;;;;;;5076261;28;19931;-69
2022/04/26 04:17:03;;;;;;;;;;;6.40;99.90;;;;;;5076247;28;20054;-70
2022/04/26 04:19:30;;;;;;;;;;;6.70;99.90;;;;;;5074906;28;19931;-71
2022/04/26 04:21:55;;;;;;;;;;;6.40;99.90;;;;;;5076112;28;19931;-69
2022/04/26 04:24:21;;;;;;;;;;;6.40;99.90;;;;;;5076163;28;20296;-71
2022/04/26 04:26:47;;;;;;;;;;;7.60;99.90;;;;;;5075823;28;20023;-71
2022/04/26 04:29:12;;;;;;;;;;;6.70;99.90;;;;;;5075079;28;20287;-71
2022/04/26 04:31:38;;;;;;;;;;;6.60;99.90;;;;;;5076057;28;19924;-71
2022/04/26 04:34:04;;;;;;;;;;;7.20;99.90;;;;;;5074989;28;19924;-70
2022/04/26 04:36:30;;;;;;;;;;;6.60;99.90;;;;;;5074758;28;20440;-70
2022/04/26 04:38:56;;;;;;;;;;;6.60;99.90;;;;;;5075572;28;19978;-69
2022/04/26 04:41:21;;;;;;;;;;;6.70;99.90;;;;;;5074721;28;19986;-70
2022/04/26 04:43:47;;;;;;;;;;;6.80;99.90;;;;;;5074551;28;19928;-70
2022/04/26 04:46:13;;;;;;;;;;;6.80;99.90;;;;;;5075455;28;19924;-71
2022/04/26 04:48:38;;;;;;;;;;;6.80;99.90;;;;;;5074540;28;19925;-71
2022/04/26 04:51:04;;;;;;;;;;;6.90;99.90;;;;;;5075499;28;19925;-70
2022/04/26 04:53:29;;;;;;;;;;;6.90;99.90;;;;;;5075316;28;19931;-71
2022/04/26 04:55:55;;;;;;;;;;;6.90;99.90;;;;;;5075210;28;20011;-70
2022/04/26 04:58:20;;;;;;;;;;;6.90;99.90;;;;;;5073890;28;19970;-71
2022/04/26 05:00:46;;;;;;;;;;;6.90;99.90;;;;;;5073851;28;19924;-72
2022/04/26 05:03:11;;;;;;;;;;;8.30;99.90;;;;;;5075263;28;19924;-69
2022/04/26 05:05:37;;;;;;;;;;;7.80;99.90;;;;;;5074190;28;19924;-70
2022/04/26 05:08:03;;;;;;;;;;;7.40;99.90;;;;;;5074828;28;19924;-71
2022/04/26 05:10:32;;;;;;;;;;;7.00;99.90;;;;;;5075097;28;19924;-71
2022/04/26 05:12:58;;;;;;;;;;;8.50;99.90;;;;;;5074780;28;19924;-71
2022/04/26 05:15:25;;;;;;;;;;;7.30;99.90;;;;;;5107856;28;20371;-72
2022/04/26 05:17:51;;;;;;;;;;;8.50;99.90;;;;;;5073944;28;19967;-70
2022/04/26 05:20:17;;;;;;;;;;;8.50;99.90;;;;;;5075004;28;19979;-71
2022/04/26 05:25:27;;;;;;;;;;;7.10;99.90;;;;;;5074712;28;19934;-69
2022/04/26 05:27:52;;;;;;;;;;;7.90;99.90;;;;;;5074504;28;20023;-68
2022/04/26 05:30:18;;;;;;;;;;;7.00;99.90;;;;;;5073760;28;19931;-70
2022/04/26 05:32:43;;;;;;;;;;;7.00;99.90;;;;;;5074740;28;19947;-71
2022/04/26 05:35:10;;;;;;;;;;;7.00;99.90;;;;;;5074604;28;20014;-70
2022/04/26 05:37:36;;;;;;;;;;;7.20;99.90;;;;;;5072944;28;19924;-70
2022/04/26 05:40:02;;;;;;;;;;;7.70;99.90;;;;;;5074465;28;20023;-70
2022/04/26 05:42:28;;;;;;;;;;;7.00;99.90;;;;;;5074364;28;20418;-71
2022/04/26 05:44:54;;;;;;;;;;;7.00;99.90;;;;;;5074517;28;19967;-70
2022/04/26 05:47:19;;;;;;;;;;;8.00;99.90;;;;;;5074530;28;19970;-70
2022/04/26 05:49:45;;;;;;;;;;;7.30;99.90;;;;;;5074359;28;19925;-70
2022/04/26 05:52:10;;;;;;;;;;;7.50;99.90;;;;;;5074320;28;20033;-71
2022/04/26 05:54:36;;;;;;;;;;;7.10;99.90;;;;;;5074018;28;19986;-70
2022/04/26 05:57:01;;;;;;;;;;;7.10;99.90;;;;;;5074043;28;19931;-71
2022/04/26 05:59:27;;;;;;;;;;;7.20;99.90;;;;;;5073926;28;19988;-69
2022/04/26 06:01:53;;;;;;;;;;;7.30;99.90;;;;;;5072669;28;20307;-69
2022/04/26 06:04:19;;;;;;;;;;;7.40;99.90;;;;;;5074124;28;19931;-70
2022/04/26 06:06:44;;;;;;;;;;;7.30;99.90;;;;;;5073178;28;19924;-71
2022/04/26 06:09:13;;;;;;;;;;;8.10;99.90;;;;;;5073954;28;19925;-71
2022/04/26 06:11:39;;;;;;;;;;;7.60;99.90;;;;;;5073885;28;19930;-70
2022/04/26 06:14:05;;;;;;;;;;;7.60;99.90;;;;;;5073784;28;19928;-70
2022/04/26 06:16:30;;;;;;;;;;;7.70;99.90;;;;;;5073911;28;19931;-69
2022/04/26 06:18:56;;;;;;;;;;;7.80;99.90;;;;;;5072582;28;19924;-70
2022/04/26 06:21:21;;;;;;;;;;;8.10;99.90;;;;;;5072845;28;20070;-70
2022/04/26 06:23:47;;;;;;;;;;;7.70;99.90;;;;;;5072705;28;20394;-70
2022/04/26 06:26:13;;;;;;;;;;;8.40;99.90;;;;;;5071630;28;19925;-71
2022/04/26 06:28:38;;;;;;;;;;;8.90;99.90;;;;;;5072664;28;19931;-69
2022/04/26 06:31:04;;;;;;;;;;;7.80;99.90;;;;;;5072567;28;19925;-71
2022/04/26 06:33:29;;;;;;;;;;;7.90;99.90;;;;;;5073468;28;20023;-70
2022/04/26 06:35:55;;;;;;;;;;;8.20;99.90;;;;;;5073611;28;19984;-71
2022/04/26 06:38:24;;;;;;;;;;;8.30;99.90;;;;;;5073434;28;19986;-71
2022/04/26 06:40:50;;;;;;;;;;;8.00;99.90;;;;;;5072298;28;20014;-70
2022/04/26 06:43:16;;;;;;;;;;;8.00;99.90;;;;;;5073493;28;19925;-70
2022/04/26 06:45:44;;;;;;;;;;;9.70;99.90;;;;;;5073736;28;20372;-70
2022/04/26 06:48:10;;;;;;;;;;;8.70;99.90;;;;;;5055967;28;19924;-69
2022/04/26 06:50:36;;;;;;;;;;;8.10;99.90;;;;;;5077135;28;20335;-68
2022/04/26 06:53:02;;;;;;;;;;;8.10;99.90;;;;;;5077664;28;19925;-71
2022/04/26 06:55:27;;;;;;;;;;;9.30;99.90;;;;;;5076554;28;19931;-71
2022/04/26 06:57:53;;;;;;;;;;;8.20;99.90;;;;;;5076250;28;19930;-71
2022/04/26 07:00:19;;;;;;;;;;;8.30;99.90;;;;;;5077111;28;19924;-71
2022/04/26 07:02:45;;;;;;;;;;;8.30;99.90;;;;;;5077713;28;20379;-71
2022/04/26 07:05:11;;;;;;;;;;;8.40;99.90;;;;;;5076293;28;19933;-70
2022/04/26 07:07:38;;;;;;;;;;;8.60;99.90;;;;;;5076524;28;19929;-71
2022/04/26 07:10:05;;;;;;;;;;;8.50;99.90;;;;;;5077303;28;20368;-71
2022/04/26 07:12:31;;;;;;;;;;;8.50;99.90;;;;;;5076420;28;19932;-69
2022/04/26 07:14:56;;;;;;;;;;;8.90;99.90;;;;;;5075622;28;19928;-70
2022/04/26 07:17:22;;;;;;;;;;;9.20;99.90;;;;;;5076378;28;19946;-69
2022/04/26 07:19:48;;;;;;;;;;;8.50;99.90;;;;;;5076263;28;19924;-71
2022/04/26 07:22:14;;;;;;;;;;;8.50;99.90;;;;;;5076301;28;19924;-70
2022/04/26 07:24:39;;;;;;;;;;;8.70;99.90;;;;;;5075522;28;19931;-70
2022/04/26 07:27:05;;;;;;;;;;;8.60;99.90;;;;;;5076914;28;20276;-70
2022/04/26 07:29:30;;;;;;;;;;;8.60;99.90;;;;;;5076927;28;20025;-70
2022/04/26 07:31:56;;;;;;;;;;;8.70;99.90;;;;;;5075372;28;20345;-71
2022/04/26 07:34:22;;;;;;;;;;;9.20;99.90;;;;;;5075799;28;19932;-70
2022/04/26 07:36:52;;;;;;;;;;;8.70;99.90;;;;;;5075693;28;19925;-69
2022/04/26 07:39:18;;;;;;;;;;;9.00;99.90;;;;;;5076112;28;20307;-68
2022/04/26 07:41:49;;;;;;;;;;;8.70;99.90;;;;;;5076628;28;19925;-70
2022/04/26 07:44:15;;;;;;;;;;;8.80;99.90;;;;;;5075434;28;20394;-70
2022/04/26 07:46:43;;;;;;;;;;;10.10;99.90;;;;;;5076502;28;19925;-71
2022/04/26 07:49:09;;;;;;;;;;;8.80;99.90;;;;;;5075332;28;20019;-70
2022/04/26 07:51:35;;;;;;;;;;;8.90;99.90;;;;;;5074936;28;20003;-71
2022/04/26 07:54:01;;;;;;;;;;;10.20;99.90;;;;;;5075724;28;19925;-69
2022/04/26 07:56:31;;;;;;;;;;;8.90;99.90;;;;;;5075171;28;20146;-70
2022/04/26 07:58:58;;;;;;;;;;;9.00;99.90;;;;;;5074324;28;20149;-69
2022/04/26 08:01:25;;;;;;;;;;;9.70;99.90;;;;;;5075817;28;19924;-71
2022/04/26 08:03:51;;;;;;;;;;;9.10;99.90;;;;;;5076184;28;20434;-71
2022/04/26 08:06:16;;;;;;;;;;;9.20;99.90;;;;;;5076149;28;20024;-70
2022/04/26 08:08:42;;;;;;;;;;;9.20;99.90;;;;;;5074926;28;19924;-71
2022/04/26 08:11:11;;;;;;;;;;;9.20;99.90;;;;;;5076101;28;20398;-70
2022/04/26 08:13:38;;;;;;;;;;;9.20;99.90;;;;;;5074561;28;19980;-70
2022/04/26 08:16:04;;;;;;;;;;;9.30;99.90;;;;;;5075792;28;20414;-68
2022/04/26 08:18:29;;;;;;;;;;;9.30;99.90;;;;;;5075679;28;19986;-69
2022/04/26 08:20:55;;;;;;;;;;;9.30;99.90;;;;;;5075977;28;20367;-71
2022/04/26 08:23:24;;;;;;;;;;;9.30;99.90;;;;;;5075763;28;20398;-71
2022/04/26 08:28:33;;;;;;;;;;;10.10;99.90;;;;;;5074644;28;19933;-71
2022/04/26 08:31:00;;;;;;;;;;;9.30;99.90;;;;;;5074761;28;19924;-70
2022/04/26 08:33:30;;;;;;;;;;;9.80;99.90;;;;;;5075707;28;19935;-70
2022/04/26 08:35:56;;;;;;;;;;;9.40;99.90;;;;;;5074604;28;19967;-69
2022/04/26 08:38:28;;;;;;;;;;;8.00;99.90;;;;;;5075292;28;20459;-69
2022/04/26 08:40:53;;;;;;;;;;;9.30;99.90;;;;;;5075391;28;19924;-70
2022/04/26 08:43:19;;;;;;;;;;;9.30;99.90;;;;;;5075336;28;20444;-71
2022/04/26 08:45:47;;;;;;;;;;;9.30;99.90;;;;;;5075503;28;20427;-71
2022/04/26 08:51:00;;;;;;;;;;;9.40;99.90;;;;;;5075300;28;19981;-71
2022/04/26 08:53:35;;;;;;;;;;;9.40;99.90;;;;;;5075152;28;20019;-68
2022/04/26 08:56:03;;;;;;;;;;;9.40;99.90;;;;;;5073959;28;19978;-70
2022/04/26 08:58:32;;;;;;;;;;;9.50;99.90;;;;;;5075209;28;19925;-71
2022/04/26 09:01:12;;;;;;;;;;;9.70;99.90;;;;;;5073957;28;19928;-68
2022/04/26 09:04:02;;;;;;;;;;;9.40;99.90;;;;;;5074225;28;19929;-69
2022/04/26 09:06:40;;;;;;;;;;;9.50;99.90;;;;;;5073707;28;19925;-69
2022/04/26 09:09:07;;;;;;;;;;;9.50;99.90;;;;;;5075036;28;19929;-71
2022/04/26 09:11:34;;;;;;;;;;;9.60;99.90;;;;;;5074242;28;19929;-69
2022/04/26 09:14:01;;;;;;;;;;;9.60;99.90;;;;;;5073800;28;19975;-70
2022/04/26 09:16:26;;;;;;;;;;;9.60;99.90;;;;;;5074692;28;19935;-70
2022/04/26 09:18:59;;;;;;;;;;;9.70;99.90;;;;;;5074528;28;19925;-70
2022/04/26 09:21:29;;;;;;;;;;;9.70;99.90;;;;;;5073932;28;19925;-70
2022/04/26 09:24:02;;;;;;;;;;;10.10;99.90;;;;;;5074601;28;19987;-68
2022/04/26 09:26:34;;;;;;;;;;;9.90;99.90;;;;;;5074552;28;19928;-70
2022/04/26 09:28:59;;;;;;;;;;;10.00;99.90;;;;;;5073620;28;19931;-68
2022/04/26 09:31:26;;;;;;;;;;;10.10;99.90;;;;;;5074814;28;19925;-71
2022/04/26 09:33:53;;;;;;;;;;;10.20;99.90;;;;;;5074588;28;19931;-70
2022/04/26 09:36:24;;;;;;;;;;;10.30;99.90;;;;;;5074538;28;19931;-69
2022/04/26 09:38:53;;;;;;;;;;;10.40;99.90;;;;;;5074316;28;20432;-70
2022/04/26 09:41:19;;;;;;;;;;;10.50;99.90;;;;;;5074373;28;19931;-70
2022/04/26 09:43:54;;;;;;;;;;;11.00;99.90;;;;;;5074267;28;19925;-70
2022/04/26 09:46:21;;;;;;;;;;;11.90;99.90;;;;;;5073627;28;20544;-69
2022/04/26 09:48:47;;;;;;;;;;;10.90;99.90;;;;;;5073530;28;19924;-71
2022/04/26 09:51:12;;;;;;;;;;;11.60;99.90;;;;;;5074436;28;19924;-70
2022/04/26 09:53:38;;;;;;;;;;;11.10;99.90;;;;;;5074148;28;19925;-70
2022/04/26 09:56:04;;;;;;;;;;;11.10;99.90;;;;;;5073138;28;19925;-70
2022/04/26 09:58:30;;;;;;;;;;;11.10;99.90;;;;;;5074080;28;19924;-70
2022/04/26 10:01:00;;;;;;;;;;;11.00;99.90;;;;;;5072630;28;19924;-70
2022/04/26 10:03:31;;;;;;;;;;;11.00;99.90;;;;;;5072563;28;20099;-69
2022/04/26 10:06:00;;;;;;;;;;;11.00;99.90;;;;;;5074118;28;19928;-71
2022/04/26 10:08:28;;;;;;;;;;;11.10;99.90;;;;;;5073975;28;20287;-70
2022/04/26 10:10:54;;;;;;;;;;;11.20;99.90;;;;;;5056279;28;19925;-70
2022/04/26 10:13:31;;;;;;;;;;;11.30;99.90;;;;;;5056146;28;19925;-71
2022/04/26 10:16:03;;;;;;;;;;;11.30;99.90;;;;;;5073000;28;20570;-71
2022/04/26 10:18:34;;;;;;;;;;;11.40;99.90;;;;;;5070562;28;20015;-71
2022/04/26 10:21:00;;;;;;;;;;;11.60;99.90;;;;;;5071800;28;19932;-68
2022/04/26 10:23:26;;;;;;;;;;;11.70;99.90;;;;;;5073686;28;20280;-71
2022/04/26 10:26:10;;;;;;;;;;;11.80;99.90;;;;;;5073500;28;19925;-72
2022/04/26 10:28:47;;;;;;;;;;;11.90;99.90;;;;;;5071866;28;20387;-70
2022/04/26 10:31:12;;;;;;;;;;;11.80;99.90;;;;;;5073670;28;19924;-68
2022/04/26 10:33:42;;;;;;;;;;;11.80;99.90;;;;;;5052546;28;19932;-71
2022/04/26 10:36:27;;;;;;;;;;;11.80;99.90;;;;;;5053703;28;19971;-70
2022/04/26 10:39:05;;;;;;;;;;;11.90;99.90;;;;;;5078416;28;19924;-69
2022/04/26 10:41:35;;;;;;;;;;;12.00;99.90;;;;;;5052732;28;19970;-71
2022/04/26 10:44:13;;;;;;;;;;;12.10;99.90;;;;;;5052364;28;19989;-69
2022/04/26 10:46:50;;;;;;;;;;;12.10;99.90;;;;;;5053495;28;19925;-72
2022/04/26 10:49:39;;;;;;;;;;;12.00;99.90;;;;;;5052487;28;19925;-71
2022/04/26 10:52:24;;;;;;;;;;;12.00;99.90;;;;;;5049843;28;19931;-71
2022/04/26 10:54:58;;;;;;;;;;;12.10;99.90;;;;;;5053179;28;19970;-71
2022/04/26 10:57:28;;;;;;;;;;;12.00;99.90;;;;;;5053334;28;20031;-70
2022/04/26 11:00:00;;;;;;;;;;;12.10;99.90;;;;;;5053326;28;20415;-70
2022/04/26 11:02:26;;;;;;;;;;;12.10;99.90;;;;;;5051977;28;19987;-69
2022/04/26 11:05:03;;;;;;;;;;;12.10;99.90;;;;;;5053361;28;19932;-70
2022/04/26 11:07:28;;;;;;;;;;;12.10;99.90;;;;;;5035818;28;20291;-69
2022/04/26 11:09:58;;;;;;;;;;;12.00;99.90;;;;;;5053301;28;19925;-71
2022/04/26 11:12:25;;;;;;;;;;;11.90;99.90;;;;;;5052492;28;19924;-71
2022/04/26 11:14:51;;;;;;;;;;;11.90;99.90;;;;;;5052081;28;19925;-71
2022/04/26 11:17:18;;;;;;;;;;;12.00;99.90;;;;;;5053216;28;19929;-72
2022/04/26 11:19:48;;;;;;;;;;;12.20;99.90;;;;;;5053112;28;19924;-69
2022/04/26 11:22:15;;;;;;;;;;;12.40;99.90;;;;;;5053131;28;19924;-70
2022/04/26 11:30:15;;;;;;;;;;;13.20;99.90;;;;;;5058837;28;19928;-69
2022/04/26 11:32:44;;;;;;;;;;;12.30;99.90;;;;;;5071093;28;20015;-71
2022/04/26 11:35:10;;;;;;;;;;;12.30;99.90;;;;;;5073712;28;19924;-73
2022/04/26 11:37:45;;;;;;;;;;;12.30;99.90;;;;;;5076742;28;19924;-71
2022/04/26 11:40:11;;;;;;;;;;;12.30;99.90;;;;;;5076551;28;19925;-71
2022/04/26 11:42:37;;;;;;;;;;;12.50;99.90;;;;;;5075348;28;19962;-72
2022/04/26 11:45:03;;;;;;;;;;;12.60;99.90;;;;;;5064680;28;20024;-71
2022/04/26 11:47:38;;;;;;;;;;;12.60;99.90;;;;;;5076485;28;19928;-70
2022/04/26 11:50:11;;;;;;;;;;;12.50;99.90;;;;;;5076458;28;20019;-72
2022/04/26 11:52:36;;;;;;;;;;;12.50;99.90;;;;;;5076667;28;19924;-72
2022/04/26 11:55:02;;;;;;;;;;;12.60;99.90;;;;;;5076460;28;19932;-70
2022/04/26 11:57:28;;;;;;;;;;;12.50;99.90;;;;;;5076559;28;19924;-71
2022/04/26 11:59:53;;;;;;;;;;;12.50;99.90;;;;;;5076422;28;19931;-70
2022/04/26 12:02:19;;;;;;;;;;;12.50;99.90;;;;;;5076101;28;19924;-69
2022/04/26 12:04:45;;;;;;;;;;;12.60;99.90;;;;;;5076139;28;20291;-72
2022/04/26 12:07:11;;;;;;;;;;;12.70;99.90;;;;;;5076345;28;19983;-70
2022/04/26 12:09:37;;;;;;;;;;;12.70;99.90;;;;;;5075090;28;20031;-73
2022/04/26 12:12:05;;;;;;;;;;;12.80;99.90;;;;;;5076316;28;20458;-71
2022/04/26 12:14:30;;;;;;;;;;;12.90;99.90;;;;;;5074941;28;20406;-71
2022/04/26 12:16:56;;;;;;;;;;;12.70;99.90;;;;;;5076098;28;19925;-72
2022/04/26 12:19:35;;;;;;;;;;;12.60;99.90;;;;;;5075802;28;19932;-72
2022/04/26 12:22:02;;;;;;;;;;;12.60;99.90;;;;;;5076086;28;20446;-70
2022/04/26 12:24:43;;;;;;;;;;;12.80;99.90;;;;;;5075817;28;20313;-69
2022/04/26 12:27:13;;;;;;;;;;;13.00;99.90;;;;;;5076042;28;19977;-70
2022/04/26 12:29:40;;;;;;;;;;;13.00;99.90;;;;;;5075880;28;19932;-70
2022/04/26 12:32:13;;;;;;;;;;;13.00;99.90;;;;;;5074773;28;19925;-71
2022/04/26 12:34:49;;;;;;;;;;;12.90;99.90;;;;;;5074648;28;19924;-72
2022/04/26 12:37:21;;;;;;;;;;;12.90;99.90;;;;;;5075875;28;19947;-69
2022/04/26 12:39:50;;;;;;;;;;;12.70;99.90;;;;;;5075592;28;19924;-69
2022/04/26 12:42:28;;;;;;;;;;;12.70;99.90;;;;;;5074719;28;20218;-69
2022/04/26 12:44:58;;;;;;;;;;;12.80;99.90;;;;;;5075746;28;19924;-70
2022/04/26 12:50:29;;;;;;;;;;;12.90;99.90;;;;;;5075544;28;19924;-70
2022/04/26 12:52:57;;;;;;;;;;;12.80;99.90;;;;;;5075327;28;20017;-70
2022/04/26 12:55:27;;;;;;;;;;;13.40;99.90;;;;;;5075335;28;19932;-72
2022/04/26 12:57:54;;;;;;;;;;;13.00;99.90;;;;;;5075381;28;19978;-72
2022/04/26 13:00:21;;;;;;;;;;;13.00;99.90;;;;;;5075056;28;19925;-70
2022/04/26 13:02:50;;;;;;;;;;;12.90;99.90;;;;;;5075151;28;19929;-70
2022/04/26 13:05:16;;;;;;;;;;;13.00;99.90;;;;;;5075107;28;20356;-69
2022/04/26 13:07:46;;;;;;;;;;;13.00;99.90;;;;;;5074997;28;19979;-69
2022/04/26 13:10:12;;;;;;;;;;;13.20;99.90;;;;;;5075118;28;19931;-70
2022/04/26 13:12:38;;;;;;;;;;;13.20;99.90;;;;;;5075196;28;19924;-70
2022/04/26 13:15:04;;;;;;;;;;;13.20;99.90;;;;;;5074180;28;19978;-70
2022/04/26 13:17:29;;;;;;;;;;;13.30;99.90;;;;;;5074924;28;19985;-70
2022/04/26 13:19:55;;;;;;;;;;;13.20;98.50;;;;;;5073939;28;19924;-70
2022/04/26 13:22:21;;;;;;;;;;;13.30;99.90;;;;;;5074739;28;19931;-71
2022/04/26 13:24:47;;;;;;;;;;;13.20;95.50;;;;;;5074946;28;19931;-71
2022/04/26 13:27:12;;;;;;;;;;;13.30;99.40;;;;;;5074655;28;19924;-72
2022/04/26 13:29:38;;;;;;;;;;;13.20;95.00;;;;;;5074767;28;19963;-69
2022/04/26 13:32:04;;;;;;;;;;;13.20;99.90;;;;;;5073792;28;19970;-70
2022/04/26 13:34:29;;;;;;;;;;;13.20;99.20;;;;;;5073227;28;19978;-71
2022/04/26 13:36:55;;;;;;;;;;;13.40;99.90;;;;;;5074487;28;20303;-70
2022/04/26 13:39:21;;;;;;;;;;;13.30;91.20;;;;;;5073037;28;19928;-72
2022/04/26 13:41:52;;;;;;;;;;;13.40;92.60;;;;;;5072197;28;19931;-73
2022/04/26 13:44:21;;;;;;;;;;;13.30;92.70;;;;;;5074560;28;19931;-70
2022/04/26 13:46:47;;;;;;;;;;;13.30;87.50;;;;;;5074422;28;19964;-72
2022/04/26 13:49:12;;;;;;;;;;;13.90;86.90;;;;;;5074381;28;19970;-73
2022/04/26 13:51:38;;;;;;;;;;;13.30;92.50;;;;;;5107303;28;19925;-71
2022/04/26 13:54:04;;;;;;;;;;;13.40;84.00;;;;;;5074046;28;19924;-71
2022/04/26 13:56:29;;;;;;;;;;;13.50;92.50;;;;;;5074132;28;19924;-71
2022/04/26 13:58:55;;;;;;;;;;;13.50;79.40;;;;;;5072428;28;19932;-70
2022/04/26 14:01:22;;;;;;;;;;;13.40;77.00;;;;;;5074178;28;19931;-70
2022/04/26 14:03:49;;;;;;;;;;;13.40;76.00;;;;;;5074058;28;20017;-72
2022/04/26 14:06:18;;;;;;;;;;;13.40;74.10;;;;;;5073171;28;19928;-70
2022/04/26 14:08:48;;;;;;;;;;;13.40;75.30;;;;;;5073886;28;20400;-72
2022/04/26 14:11:14;;;;;;;;;;;13.40;74.00;;;;;;5074012;28;19931;-71
2022/04/26 14:21:47;;;;;;;;;;;13.40;73.60;;;;;;5073169;28;20019;-72
2022/04/26 14:22:07;;;;;;;;;;;13.40;76.10;;;;;;5071595;28;19929;-71
2022/04/26 14:24:33;;;;;;;;;;;13.50;76.20;;;;;;5054215;28;19924;-71
2022/04/26 14:26:59;;;;;;;;;;;13.40;74.30;;;;;;5071440;28;19982;-72
2022/04/26 14:29:25;;;;;;;;;;;13.40;73.10;;;;;;5071602;28;20457;-72
2022/04/26 14:31:51;;;;;;;;;;;13.30;76.20;;;;;;5054703;28;19928;-70
2022/04/26 14:34:16;;;;;;;;;;;13.30;75.40;;;;;;5054472;28;19971;-70
2022/04/26 14:36:42;;;;;;;;;;;13.50;83.00;;;;;;5071511;28;19924;-70
2022/04/26 14:39:08;;;;;;;;;;;13.40;90.00;;;;;;5054600;28;19924;-70
2022/04/26 14:41:34;;;;;;;;;;;13.60;87.70;;;;;;5071338;28;19971;-72
2022/04/26 14:43:59;;;;;;;;;;;13.60;88.10;;;;;;5071469;28;20441;-72
2022/04/26 14:46:28;;;;;;;;;;;13.70;88.30;;;;;;5071411;28;19929;-70
2022/04/26 14:48:54;;;;;;;;;;;13.80;84.40;;;;;;5054862;28;19940;-72
2022/04/26 14:51:19;;;;;;;;;;;13.70;83.00;;;;;;5070970;28;19924;-72
2022/04/26 14:53:45;;;;;;;;;;;13.60;84.70;;;;;;5071208;28;19947;-71
2022/04/26 14:56:11;;;;;;;;;;;13.60;87.50;;;;;;5071195;28;19985;-70
2022/04/26 14:58:36;;;;;;;;;;;13.60;91.20;;;;;;5069635;28;19975;-70
2022/04/26 15:01:02;;;;;;;;;;;13.60;91.60;;;;;;5073196;28;19924;-70
2022/04/26 15:03:28;;;;;;;;;;;13.50;92.70;;;;;;5073511;28;20371;-70
2022/04/26 15:05:54;;;;;;;;;;;13.50;91.90;;;;;;5073574;28;19930;-69
2022/04/26 15:11:03;;;;;;;;;;;13.50;90.40;;;;;;5075661;28;19924;-71
2022/04/26 15:18:57;;;;;;;;;;;13.50;92.30;;;;;;5077289;28;20031;-70
2022/04/26 15:21:24;;;;;;;;;;;13.50;91.60;;;;;;5077234;28;20445;-72
2022/04/26 15:23:50;;;;;;;;;;;13.60;90.30;;;;;;5077358;28;19925;-70
2022/04/26 15:26:15;;;;;;;;;;;13.70;92.00;;;;;;5075605;28;19970;-73
2022/04/26 15:28:41;;;;;;;;;;;13.60;91.00;;;;;;5077291;28;19932;-72
2022/04/26 15:31:07;;;;;;;;;;;13.60;94.50;;;;;;5077175;28;19932;-70
2022/04/26 15:33:33;;;;;;;;;;;13.60;92.50;;;;;;5076973;28;20380;-70
2022/04/26 15:35:58;;;;;;;;;;;13.60;92.20;;;;;;5075966;28;19928;-70
2022/04/26 15:38:27;;;;;;;;;;;13.50;92.20;;;;;;5076580;28;19978;-70
2022/04/26 15:40:53;;;;;;;;;;;13.50;91.00;;;;;;5076698;28;19924;-71
2022/04/26 15:43:19;;;;;;;;;;;13.40;91.30;;;;;;5076674;28;19978;-71
2022/04/26 15:45:45;;;;;;;;;;;13.40;87.20;;;;;;5076838;28;20291;-72
2022/04/26 15:48:11;;;;;;;;;;;13.40;88.80;;;;;;5076812;28;20019;-71
2022/04/26 15:50:40;;;;;;;;;;;13.40;88.60;;;;;;5076710;28;19982;-70
2022/04/26 15:53:05;;;;;;;;;;;13.50;91.10;;;;;;5075275;28;19931;-71
2022/04/26 15:55:31;;;;;;;;;;;13.50;93.30;;;;;;5075993;28;19924;-71
2022/04/26 15:57:57;;;;;;;;;;;13.50;96.10;;;;;;5076100;28;19954;-70
2022/04/26 16:00:22;;;;;;;;;;;13.50;92.50;;;;;;5075065;28;19959;-72
2022/04/26 16:02:48;;;;;;;;;;;13.50;93.60;;;;;;5075001;28;19932;-71
2022/04/26 16:05:14;;;;;;;;;;;13.60;94.00;;;;;;5076131;28;19992;-71
2022/04/26 16:07:40;;;;;;;;;;;13.50;90.80;;;;;;5075974;28;20423;-70
2022/04/26 16:21:04;;;;;;;;;;;13.40;92.40;;;;;;5075431;28;19932;-71
2022/04/26 16:23:29;;;;;;;;;;;13.30;91.00;;;;;;5075817;28;19924;-73
2022/04/26 16:26:01;;;;;;;;;;;13.10;91.60;;;;;;5075684;28;19924;-72
2022/04/26 16:28:30;;;;;;;;;;;13.20;91.40;;;;;;5075739;28;20441;-73
2022/04/26 16:30:56;;;;;;;;;;;13.10;90.70;;;;;;5075699;28;19932;-71
2022/04/26 16:33:22;;;;;;;;;;;13.00;92.10;;;;;;5075692;28;19924;-70
2022/04/26 16:35:48;;;;;;;;;;;13.00;93.20;;;;;;5075834;28;20307;-71
2022/04/26 16:38:13;;;;;;;;;;;13.00;96.10;;;;;;5074539;28;19925;-71
2022/04/26 16:40:39;;;;;;;;;;;13.00;93.70;;;;;;5075377;28;19932;-70
2022/04/26 16:43:05;;;;;;;;;;;14.50;97.20;;;;;;5075493;28;19924;-71
2022/04/26 16:45:30;;;;;;;;;;;13.00;96.60;;;;;;5075521;28;20294;-72
2022/04/26 16:47:56;;;;;;;;;;;12.90;97.80;;;;;;5075323;28;20008;-70
2022/04/26 16:50:22;;;;;;;;;;;12.70;99.30;;;;;;5075185;28;20383;-72
2022/04/26 16:52:49;;;;;;;;;;;12.60;97.30;;;;;;5074341;28;19968;-72
2022/04/26 16:55:30;;;;;;;;;;;12.60;99.00;;;;;;5075135;28;20308;-72
2022/04/26 16:57:57;;;;;;;;;;;12.50;96.70;;;;;;5073930;28;19931;-71
2022/04/26 17:00:24;;;;;;;;;;;12.40;97.40;;;;;;5074803;28;20408;-73
2022/04/26 17:02:50;;;;;;;;;;;12.40;97.70;;;;;;5074064;28;19924;-72
2022/04/26 17:05:16;;;;;;;;;;;12.30;98.70;;;;;;5074858;28;20019;-70
2022/04/26 17:07:41;;;;;;;;;;;12.10;98.30;;;;;;5075019;28;19959;-72
2022/04/26 17:10:07;;;;;;;;;;;11.90;99.70;;;;;;5074889;28;20322;-70
2022/04/26 17:12:33;;;;;;;;;;;11.80;98.60;;;;;;5073695;28;19925;-71
2022/04/26 17:15:00;;;;;;;;;;;11.70;99.90;;;;;;5073377;28;20318;-70
2022/04/26 17:17:27;;;;;;;;;;;11.60;99.90;;;;;;5074696;28;20291;-72
2022/04/26 17:19:53;;;;;;;;;;;11.40;99.90;;;;;;5073525;28;20303;-69
2022/04/26 17:22:19;;;;;;;;;;;10.70;99.90;;;;;;5074062;28;20007;-72
2022/04/26 17:27:29;;;;;;;;;;;11.10;99.90;;;;;;5074777;28;19930;-72
2022/04/26 17:29:54;;;;;;;;;;;11.00;99.90;;;;;;5074760;28;19928;-70
2022/04/26 17:32:22;;;;;;;;;;;11.80;99.90;;;;;;5074199;28;19985;-70
2022/04/26 17:34:48;;;;;;;;;;;11.10;99.90;;;;;;5074490;28;19924;-70
2022/04/26 17:37:13;;;;;;;;;;;10.90;99.90;;;;;;5074576;28;19985;-72
2022/04/26 17:39:39;;;;;;;;;;;10.90;99.90;;;;;;5073382;28;19932;-69
2022/04/26 17:42:06;;;;;;;;;;;10.90;99.90;;;;;;5074441;28;19930;-71
2022/04/26 17:44:31;;;;;;;;;;;10.90;99.90;;;;;;5074467;28;19925;-70
2022/04/26 17:46:57;;;;;;;;;;;10.90;99.90;;;;;;5073456;28;19978;-72
2022/04/26 17:49:23;;;;;;;;;;;10.80;99.90;;;;;;5074533;28;20414;-70
2022/04/26 17:51:48;;;;;;;;;;;10.80;99.90;;;;;;5074409;28;19924;-72
2022/04/26 17:56:58;;;;;;;;;;;10.70;99.90;;;;;;5073820;28;20429;-72
2022/04/26 17:59:24;;;;;;;;;;;10.60;99.90;;;;;;5074069;28;19928;-71
2022/04/26 18:01:49;;;;;;;;;;;10.50;99.90;;;;;;5074176;28;19931;-72
2022/04/26 18:04:15;;;;;;;;;;;9.40;99.90;;;;;;5072981;28;19930;-70
2022/04/26 18:06:41;;;;;;;;;;;10.60;99.90;;;;;;5074114;28;19932;-70
2022/04/26 18:09:06;;;;;;;;;;;10.40;99.90;;;;;;5074147;28;19925;-70
2022/04/26 18:11:32;;;;;;;;;;;10.40;99.90;;;;;;5073958;28;20018;-69
2022/04/26 18:13:57;;;;;;;;;;;10.40;99.90;;;;;;5074045;28;19932;-71
2022/04/26 18:16:23;;;;;;;;;;;10.90;99.90;;;;;;5073854;28;19932;-70
2022/04/26 18:18:49;;;;;;;;;;;10.50;99.90;;;;;;5072933;28;19935;-71
2022/04/26 18:21:17;;;;;;;;;;;10.20;99.90;;;;;;5074044;28;19969;-71
2022/04/26 18:23:43;;;;;;;;;;;10.20;99.90;;;;;;5074282;28;19925;-72
2022/04/26 18:26:11;;;;;;;;;;;10.10;99.90;;;;;;5073852;28;19924;-70
2022/04/26 18:28:47;;;;;;;;;;;10.80;99.90;;;;;;5072876;28;20058;-70
2022/04/26 18:31:14;;;;;;;;;;;10.70;99.90;;;;;;5073719;28;19925;-70
2022/04/26 18:33:40;;;;;;;;;;;9.80;99.90;;;;;;5074021;28;20299;-69
2022/04/26 18:36:08;;;;;;;;;;;9.70;99.90;;;;;;5073896;28;19946;-72
2022/04/26 18:38:34;;;;;;;;;;;9.60;99.90;;;;;;5073740;28;19924;-71
2022/04/26 18:41:00;;;;;;;;;;;9.60;99.90;;;;;;5072704;28;20287;-69
2022/04/26 18:43:27;;;;;;;;;;;9.50;99.90;;;;;;5073589;28;20015;-71
2022/04/26 18:45:52;;;;;;;;;;;9.40;99.90;;;;;;5073487;28;20321;-70